createdAt,value
2022-11-05T00:00:38.303Z,52.83
2022-11-05T00:03:24.425Z,51.47
2022-11-05T00:06:23.852Z,51.97
2022-11-05T00:09:09.984Z,49.53
2022-11-05T00:11:57.157Z,47.47
2022-11-05T00:14:43.048Z,50.27
2022-11-05T00:17:11.682Z,48.10
2022-11-05T00:19:40.190Z,48.60
2022-11-05T00:22:26.082Z,45.63
2022-11-05T00:25:11.873Z,49.90
2022-11-05T00:27:41.942Z,48.43
2022-11-05T00:30:12.053Z,49.23
2022-11-05T00:32:40.694Z,49.83
2022-11-05T00:35:09.797Z,48.20
2022-11-05T00:37:38.356Z,47.47
2022-11-05T00:40:08.215Z,44.87
2022-11-05T00:42:54.101Z,48.13
2022-11-05T00:45:24.100Z,43.50
2022-11-05T00:48:12.393Z,46.23
2022-11-05T00:50:41.327Z,45.23
2022-11-05T00:53:10.270Z,43.37
2022-11-05T00:55:41.064Z,42.17
2022-11-05T00:58:11.676Z,41.73
2022-11-05T01:00:43.611Z,42.00
2022-11-05T01:03:14.940Z,43.83
2022-11-05T01:05:45.496Z,42.90
2022-11-05T01:08:15.506Z,40.80
2022-11-05T01:10:45.104Z,38.17
2022-11-05T01:13:15.012Z,43.17
2022-11-05T01:15:45.710Z,46.27
2022-11-05T01:18:14.728Z,45.13
2022-11-05T01:20:43.326Z,49.33
2022-11-05T01:23:13.718Z,44.63
2022-11-05T01:25:43.005Z,49.00
2022-11-05T01:28:11.672Z,46.97
2022-11-05T01:30:40.375Z,49.40
2022-11-05T01:33:10.510Z,47.17
2022-11-05T01:35:40.352Z,47.40
2022-11-05T01:38:08.888Z,44.57
2022-11-05T01:40:37.438Z,45.83
2022-11-05T01:43:10.796Z,46.90
2022-11-05T01:45:39.610Z,44.00
2022-11-05T01:48:15.329Z,46.83
2022-11-05T01:50:48.839Z,43.47
2022-11-05T01:53:24.570Z,43.63
2022-11-05T01:55:59.408Z,45.77
2022-11-05T01:58:33.959Z,47.13
2022-11-05T02:01:02.963Z,43.03
2022-11-05T02:03:33.568Z,43.03
2022-11-05T02:06:03.427Z,45.73
2022-11-05T02:08:43.590Z,44.10
2022-11-05T02:11:14.097Z,42.97
2022-11-05T02:13:42.611Z,42.63
2022-11-05T02:16:16.844Z,41.50
2022-11-05T02:18:56.647Z,35.03
2022-11-05T02:22:03.703Z,33.93
2022-11-05T02:25:03.075Z,39.73
2022-11-05T02:27:58.639Z,39.43
2022-11-05T02:30:40.989Z,36.70
2022-11-05T02:33:33.704Z,40.20
2022-11-05T02:36:27.051Z,40.37
2022-11-05T02:39:09.535Z,35.33
2022-11-05T02:41:47.865Z,40.67
2022-11-05T02:44:25.001Z,38.27
2022-11-05T02:47:04.362Z,37.00
2022-11-05T02:49:44.146Z,38.23
2022-11-05T02:52:17.835Z,40.00
2022-11-05T02:54:54.011Z,35.43
2022-11-05T02:57:23.614Z,36.63
2022-11-05T03:00:01.819Z,36.53
2022-11-05T03:02:32.199Z,33.73
2022-11-05T03:05:02.055Z,35.10
2022-11-05T03:07:39.133Z,33.87
2022-11-05T03:10:34.701Z,34.77
2022-11-05T03:13:12.164Z,31.00
2022-11-05T03:15:51.828Z,30.90
2022-11-05T03:18:28.181Z,30.73
2022-11-05T03:21:03.904Z,31.03
2022-11-05T03:23:36.730Z,27.80
2022-11-05T03:26:11.655Z,28.03
2022-11-05T03:28:44.205Z,29.50
2022-11-05T03:31:15.316Z,26.40
2022-11-05T03:33:47.569Z,27.43
2022-11-05T03:36:21.404Z,30.17
2022-11-05T03:38:54.473Z,22.47
2022-11-05T03:41:24.283Z,23.83
2022-11-05T03:43:57.553Z,22.07
2022-11-05T03:46:31.391Z,23.40
2022-11-05T03:49:05.268Z,25.10
2022-11-05T03:51:43.201Z,20.10
2022-11-05T03:54:12.120Z,23.87
2022-11-05T03:56:45.648Z,25.10
2022-11-05T03:59:14.981Z,21.10
2022-11-05T04:01:43.789Z,22.70
2022-11-05T04:04:13.749Z,22.83
2022-11-05T04:07:00.046Z,24.07
2022-11-05T04:09:46.538Z,24.50
2022-11-05T04:12:32.476Z,21.57
2022-11-05T04:15:01.059Z,20.90
2022-11-05T04:17:28.594Z,23.00
2022-11-05T04:20:15.934Z,19.50
2022-11-05T04:23:01.931Z,20.87
2022-11-05T04:25:30.546Z,20.33
2022-11-05T04:28:01.994Z,20.77
2022-11-05T04:30:29.594Z,21.80
2022-11-05T04:33:06.572Z,20.50
2022-11-05T04:35:38.765Z,22.53
2022-11-05T04:38:09.130Z,24.13
2022-11-05T04:40:38.198Z,21.20
2022-11-05T04:43:13.586Z,20.60
2022-11-05T04:45:44.277Z,21.17
2022-11-05T04:48:13.020Z,19.33
2022-11-05T04:50:43.043Z,22.77
2022-11-05T04:53:11.670Z,20.40
2022-11-05T04:55:40.386Z,18.97
2022-11-05T04:58:10.158Z,17.33
2022-11-05T05:00:38.752Z,16.93
2022-11-05T05:03:07.622Z,15.50
2022-11-05T05:05:36.708Z,14.13
2022-11-05T05:08:07.153Z,15.17
2022-11-05T05:10:35.670Z,12.60
2022-11-05T05:13:04.370Z,11.13
2022-11-05T05:15:32.964Z,9.30
2022-11-05T05:18:01.485Z,9.67
2022-11-05T05:20:47.463Z,7.37
2022-11-05T05:23:17.384Z,6.80
2022-11-05T05:25:46.018Z,6.87
2022-11-05T05:28:14.543Z,6.67
2022-11-05T05:30:43.110Z,5.80
2022-11-05T05:33:11.874Z,6.80
2022-11-05T05:35:40.651Z,4.50
2022-11-05T05:38:09.157Z,7.93
2022-11-05T05:40:39.071Z,4.30
2022-11-05T05:43:07.697Z,9.97
2022-11-05T05:45:36.507Z,5.17
2022-11-05T05:48:05.448Z,6.63
2022-11-05T05:50:34.012Z,3.97
2022-11-05T05:53:09.237Z,4.20
2022-11-05T05:55:39.283Z,7.90
2022-11-05T05:58:07.794Z,5.53
2022-11-05T06:00:36.758Z,8.77
2022-11-05T06:03:06.429Z,5.83
2022-11-05T06:05:35.067Z,5.67
2022-11-05T06:08:03.668Z,6.47
2022-11-05T06:10:32.468Z,6.47
2022-11-05T06:13:02.791Z,6.13
2022-11-05T06:15:35.626Z,7.43
2022-11-05T06:18:04.895Z,5.40
2022-11-05T06:20:33.480Z,9.37
2022-11-05T06:23:02.112Z,6.20
2022-11-05T06:25:30.723Z,5.43
2022-11-05T06:27:59.491Z,3.63
2022-11-05T06:30:29.429Z,7.63
2022-11-05T06:32:58.011Z,4.27
2022-11-05T06:35:26.586Z,4.37
2022-11-05T06:37:59.556Z,6.27
2022-11-05T06:40:28.344Z,2.90
2022-11-05T06:42:56.961Z,6.13
2022-11-05T06:45:25.622Z,5.10
2022-11-05T06:47:59.498Z,3.37
2022-11-05T06:50:29.040Z,4.03
2022-11-05T06:52:58.355Z,3.77
2022-11-05T06:55:28.824Z,4.43
2022-11-05T06:57:57.735Z,4.87
2022-11-05T07:00:26.343Z,3.80
2022-11-05T07:02:56.894Z,2.07
2022-11-05T07:05:27.356Z,6.33
2022-11-05T07:07:56.057Z,5.50
2022-11-05T07:10:24.811Z,5.20
2022-11-05T07:12:53.434Z,3.70
2022-11-05T07:15:22.093Z,6.47
2022-11-05T07:17:50.811Z,4.90
2022-11-05T07:20:19.577Z,3.60
2022-11-05T07:22:49.548Z,5.90
2022-11-05T07:25:18.234Z,5.10
2022-11-05T07:27:46.790Z,4.17
2022-11-05T07:30:15.468Z,2.50
2022-11-05T07:32:44.041Z,7.13
2022-11-05T07:35:13.442Z,5.40
2022-11-05T07:37:45.672Z,8.40
2022-11-05T07:40:18.246Z,6.30
2022-11-05T07:42:48.285Z,5.17
2022-11-05T07:45:17.827Z,5.50
2022-11-05T07:47:51.062Z,5.40
2022-11-05T07:50:22.314Z,3.73
2022-11-05T07:52:51.372Z,4.17
2022-11-05T07:55:21.865Z,5.80
2022-11-05T07:57:52.042Z,5.60
2022-11-05T08:00:22.334Z,3.93
2022-11-05T08:03:07.239Z,5.47
2022-11-05T08:05:37.735Z,5.47
2022-11-05T08:08:07.748Z,6.17
2022-11-05T08:10:39.017Z,4.67
2022-11-05T08:13:08.575Z,8.00
2022-11-05T08:15:37.637Z,4.10
2022-11-05T08:18:08.522Z,6.23
2022-11-05T08:20:38.633Z,4.83
2022-11-05T08:23:07.214Z,5.63
2022-11-05T08:25:37.260Z,3.10
2022-11-05T08:28:07.855Z,3.70
2022-11-05T08:30:36.981Z,4.67
2022-11-05T08:33:07.818Z,4.33
2022-11-05T08:35:38.574Z,5.17
2022-11-05T08:38:09.214Z,2.73
2022-11-05T08:40:39.379Z,7.03
2022-11-05T08:43:09.967Z,7.83
2022-11-05T08:45:39.488Z,4.97
2022-11-05T08:48:10.515Z,8.90
2022-11-05T08:50:40.364Z,7.03
2022-11-05T08:53:10.507Z,5.37
2022-11-05T08:55:41.892Z,5.57
2022-11-05T08:58:15.200Z,24.27
2022-11-05T09:00:45.703Z,9.57
2022-11-05T09:03:15.224Z,10.60
2022-11-05T09:05:44.779Z,7.30
2022-11-05T09:08:14.793Z,9.13
2022-11-05T09:10:45.781Z,13.63
2022-11-05T09:13:18.679Z,9.40
2022-11-05T09:15:49.037Z,10.03
2022-11-05T09:18:19.412Z,7.43
2022-11-05T09:20:48.509Z,7.00
2022-11-05T09:23:17.348Z,9.47
2022-11-05T09:25:47.625Z,9.17
2022-11-05T09:28:18.678Z,11.63
2022-11-05T09:30:49.288Z,13.43
2022-11-05T09:33:19.334Z,12.87
2022-11-05T09:35:48.385Z,11.40
2022-11-05T09:38:17.209Z,8.43
2022-11-05T09:40:55.517Z,7.10
2022-11-05T09:43:31.464Z,10.23
2022-11-05T09:46:08.490Z,8.07
2022-11-05T09:48:39.903Z,9.23
2022-11-05T09:51:09.460Z,8.30
2022-11-05T09:53:42.024Z,9.43
2022-11-05T09:56:32.223Z,9.77
2022-11-05T09:59:04.169Z,11.20
2022-11-05T10:01:36.488Z,12.83
2022-11-05T10:04:09.537Z,10.40
2022-11-05T10:06:45.811Z,10.70
2022-11-05T10:09:21.893Z,9.90
2022-11-05T10:11:57.692Z,9.00
2022-11-05T10:14:29.727Z,9.63
2022-11-05T10:17:05.060Z,9.20
2022-11-05T10:19:42.684Z,10.93
2022-11-05T10:22:13.358Z,11.03
2022-11-05T10:24:44.618Z,9.73
2022-11-05T10:27:19.309Z,8.73
2022-11-05T10:29:49.363Z,11.70
2022-11-05T10:32:26.670Z,9.13
2022-11-05T10:34:59.517Z,10.50
2022-11-05T10:37:29.261Z,11.03
2022-11-05T10:39:58.123Z,11.70
2022-11-05T10:42:42.554Z,15.00
2022-11-05T10:45:22.941Z,10.63
2022-11-05T10:48:01.604Z,12.07
2022-11-05T10:50:31.455Z,11.17
2022-11-05T10:53:02.608Z,12.40
2022-11-05T10:55:35.716Z,12.17
2022-11-05T10:58:23.292Z,12.07
2022-11-05T11:01:08.996Z,10.97
2022-11-05T11:03:44.520Z,14.63
2022-11-05T11:06:22.668Z,17.20
2022-11-05T11:08:52.870Z,12.13
2022-11-05T11:11:30.485Z,11.43
2022-11-05T11:14:07.301Z,10.97
2022-11-05T11:16:38.903Z,17.47
2022-11-05T11:19:26.533Z,10.03
2022-11-05T11:22:20.889Z,16.07
2022-11-05T11:24:51.904Z,13.80
2022-11-05T11:27:24.307Z,12.57
2022-11-05T11:29:58.212Z,14.83
2022-11-05T11:32:33.009Z,11.13
2022-11-05T11:35:01.910Z,12.97
2022-11-05T11:37:34.104Z,12.80
2022-11-05T11:40:06.739Z,16.07
2022-11-05T11:42:37.792Z,13.87
2022-11-05T11:45:20.434Z,19.13
2022-11-05T11:47:50.842Z,16.20
2022-11-05T11:50:38.719Z,11.60
2022-11-05T11:53:28.838Z,13.03
2022-11-05T11:56:00.555Z,12.27
2022-11-05T11:58:43.558Z,11.27
2022-11-05T12:01:47.382Z,11.17
2022-11-05T12:04:31.680Z,13.20
2022-11-05T12:07:13.994Z,14.87
2022-11-05T12:09:56.176Z,14.27
2022-11-05T12:12:34.441Z,11.23
2022-11-05T12:15:16.403Z,9.97
2022-11-05T12:17:50.973Z,11.43
2022-11-05T12:20:34.114Z,14.33
2022-11-05T12:23:24.717Z,10.53
2022-11-05T12:25:58.750Z,11.93
2022-11-05T12:29:16.810Z,6.70
2022-11-05T12:31:42.552Z,8.83
2022-11-05T12:34:27.124Z,7.97
2022-11-05T12:37:17.753Z,10.47
2022-11-05T12:40:02.703Z,9.67
2022-11-05T12:42:45.754Z,10.83
2022-11-05T12:45:28.343Z,11.37
2022-11-05T12:48:11.714Z,12.43
2022-11-05T12:50:45.693Z,10.10
2022-11-05T12:53:34.401Z,11.97
2022-11-05T12:56:10.991Z,8.30
2022-11-05T12:58:44.024Z,11.83
2022-11-05T13:01:18.943Z,9.17
2022-11-05T13:03:53.408Z,7.87
2022-11-05T13:06:26.635Z,10.00
2022-11-05T13:09:02.089Z,10.30
2022-11-05T13:11:37.189Z,6.73
2022-11-05T13:14:12.628Z,12.90
2022-11-05T13:16:44.860Z,6.87
2022-11-05T13:19:20.081Z,11.90
2022-11-05T13:21:54.466Z,13.87
2022-11-05T13:24:28.209Z,25.57
2022-11-05T13:27:02.399Z,17.20
2022-11-05T13:29:36.163Z,10.97
2022-11-05T13:32:15.604Z,9.60
2022-11-05T13:34:44.899Z,9.63
2022-11-05T13:37:42.583Z,6.87
2022-11-05T13:40:15.543Z,8.17
2022-11-05T13:43:03.361Z,11.20
2022-11-05T13:46:05.364Z,11.77
2022-11-05T13:49:08.230Z,12.60
2022-11-05T13:51:52.026Z,7.43
2022-11-05T13:54:53.027Z,9.20
2022-11-05T13:57:56.304Z,15.03
2022-11-05T14:00:27.103Z,5.90
2022-11-05T14:02:58.981Z,12.80
2022-11-05T14:05:34.158Z,9.97
2022-11-05T14:08:10.279Z,12.30
2022-11-05T14:10:41.236Z,12.73
2022-11-05T14:13:36.340Z,14.03
2022-11-05T14:16:08.200Z,13.20
2022-11-05T14:18:40.325Z,12.20
2022-11-05T14:21:33.022Z,14.90
2022-11-05T14:24:20.791Z,17.77
2022-11-05T14:27:34.284Z,10.57
2022-11-05T14:30:41.315Z,38.53
2022-11-05T14:33:32.903Z,12.13
2022-11-05T14:36:33.936Z,12.03
2022-11-05T14:39:21.572Z,8.17
2022-11-05T14:42:04.797Z,9.43
2022-11-05T14:44:36.464Z,8.17
2022-11-05T14:47:09.038Z,8.53
2022-11-05T14:49:49.330Z,10.03
2022-11-05T14:52:20.935Z,10.97
2022-11-05T14:54:52.261Z,7.70
2022-11-05T14:57:56.738Z,10.10
2022-11-05T15:00:44.333Z,9.37
2022-11-05T15:04:02.309Z,10.90
2022-11-05T15:06:34.993Z,14.13
2022-11-05T15:09:29.797Z,10.57
2022-11-05T15:12:15.423Z,11.43
2022-11-05T15:14:55.529Z,9.27
2022-11-05T15:17:29.976Z,9.30
2022-11-05T15:20:14.966Z,15.77
2022-11-05T15:22:48.416Z,13.63
2022-11-05T15:25:20.071Z,12.60
2022-11-05T15:28:00.049Z,9.97
2022-11-05T15:30:28.835Z,11.63
2022-11-05T15:33:10.588Z,10.93
2022-11-05T15:35:41.684Z,13.07
2022-11-05T15:38:30.547Z,15.83
2022-11-05T15:41:01.477Z,13.33
2022-11-05T15:43:30.133Z,12.60
2022-11-05T15:46:03.712Z,18.47
2022-11-05T15:48:33.374Z,7.90
2022-11-05T15:51:02.459Z,13.00
2022-11-05T15:56:51.157Z,9.17
2022-11-05T15:59:21.656Z,9.80
2022-11-05T16:01:52.307Z,13.93
2022-11-05T16:04:23.879Z,14.87
2022-11-05T16:06:55.094Z,13.40
2022-11-05T16:09:27.647Z,10.23
2022-11-05T16:12:25.143Z,12.07
2022-11-05T16:15:04.397Z,14.00
2022-11-05T16:17:45.595Z,13.63
2022-11-05T16:20:23.860Z,15.00
2022-11-05T16:22:54.353Z,13.73
2022-11-05T16:25:35.923Z,10.33
2022-11-05T16:28:06.127Z,16.37
2022-11-05T16:30:35.184Z,15.87
2022-11-05T16:33:06.084Z,13.17
2022-11-05T16:35:34.889Z,12.73
2022-11-05T16:38:03.992Z,19.17
2022-11-05T16:40:33.958Z,20.67
2022-11-05T16:43:16.651Z,23.67
2022-11-05T16:45:45.571Z,20.83
2022-11-05T16:48:15.481Z,17.93
2022-11-05T16:50:44.468Z,13.30
2022-11-05T16:53:13.234Z,14.27
2022-11-05T16:55:45.038Z,15.20
2022-11-05T16:58:20.903Z,14.20
2022-11-05T17:00:51.337Z,11.57
2022-11-05T17:03:20.091Z,13.80
2022-11-05T17:05:48.873Z,13.43
2022-11-05T17:08:17.692Z,11.33
2022-11-05T17:10:47.833Z,15.40
2022-11-05T17:13:18.016Z,20.23
2022-11-05T17:15:48.770Z,17.83
2022-11-05T17:18:19.137Z,20.13
2022-11-05T17:20:50.250Z,28.00
2022-11-05T17:23:21.015Z,54.23
2022-11-05T17:25:54.604Z,65.93
2022-11-05T17:28:23.869Z,55.93
2022-11-05T17:30:53.391Z,40.47
2022-11-05T17:33:23.686Z,32.13
2022-11-05T17:35:53.635Z,33.20
2022-11-05T17:38:23.650Z,30.00
2022-11-05T17:40:54.233Z,52.33
2022-11-05T17:43:23.064Z,52.73
2022-11-05T17:45:53.357Z,90.03
2022-11-05T17:48:22.582Z,116.57
2022-11-05T17:50:52.270Z,119.17
2022-11-05T17:53:21.492Z,65.93
2022-11-05T17:55:50.780Z,41.03
2022-11-05T17:58:21.471Z,35.63
2022-11-05T18:00:50.399Z,78.93
2022-11-05T18:03:19.144Z,108.77
2022-11-05T18:05:47.783Z,76.50
2022-11-05T18:08:16.460Z,61.27
2022-11-05T18:10:45.475Z,68.70
2022-11-05T18:13:14.530Z,44.17
2022-11-05T18:15:44.939Z,101.63
2022-11-05T18:18:13.851Z,98.00
2022-11-05T18:20:43.740Z,91.93
2022-11-05T18:23:13.659Z,82.77
2022-11-05T18:25:43.144Z,50.10
2022-11-05T18:28:12.176Z,31.37
2022-11-05T18:30:41.439Z,28.47
2022-11-05T18:33:12.047Z,29.40
2022-11-05T18:35:44.551Z,28.60
2022-11-05T18:38:13.487Z,33.23
2022-11-05T18:40:42.084Z,31.40
2022-11-05T18:43:11.184Z,32.47
2022-11-05T18:45:40.342Z,32.17
2022-11-05T18:48:09.148Z,32.70
2022-11-05T18:50:40.848Z,32.30
2022-11-05T18:53:09.962Z,35.27
2022-11-05T18:55:40.220Z,36.33
2022-11-05T18:58:09.267Z,32.33
2022-11-05T19:00:40.348Z,38.57
2022-11-05T19:03:09.665Z,30.03
2022-11-05T19:05:39.838Z,39.57
2022-11-05T19:08:08.545Z,29.47
2022-11-05T19:10:40.210Z,30.33
2022-11-05T19:13:08.861Z,31.67
2022-11-05T19:15:37.863Z,28.30
2022-11-05T19:18:07.148Z,36.83
2022-11-05T19:20:37.930Z,32.70
2022-11-05T19:23:08.872Z,33.17
2022-11-05T19:25:38.809Z,32.77
2022-11-05T19:28:07.700Z,32.70
2022-11-05T19:30:38.761Z,37.10
2022-11-05T19:33:08.161Z,40.50
2022-11-05T19:35:41.537Z,39.83
2022-11-05T19:38:12.559Z,40.13
2022-11-05T19:40:41.625Z,39.83
2022-11-05T19:43:10.423Z,63.23
2022-11-05T19:45:44.915Z,104.47
2022-11-05T19:48:19.064Z,110.73
2022-11-05T19:50:49.007Z,104.27
2022-11-05T19:53:19.780Z,71.07
2022-11-05T19:55:48.936Z,66.63
2022-11-05T19:58:18.406Z,140.53
2022-11-05T20:00:47.796Z,157.53
2022-11-05T20:03:17.079Z,91.17
2022-11-05T20:05:46.855Z,63.63
2022-11-05T20:08:16.918Z,41.17
2022-11-05T20:10:48.734Z,38.77
2022-11-05T20:13:20.063Z,36.93
2022-11-05T20:15:50.089Z,38.00
2022-11-05T20:18:19.851Z,36.10
2022-11-05T20:20:49.670Z,35.60
2022-11-05T20:23:19.701Z,37.43
2022-11-05T20:25:50.957Z,41.50
2022-11-05T20:28:20.448Z,37.60
2022-11-05T20:30:49.935Z,31.90
2022-11-05T20:33:19.382Z,58.10
2022-11-05T20:35:48.890Z,66.20
2022-11-05T20:38:18.628Z,78.70
2022-11-05T20:40:51.600Z,48.53
2022-11-05T20:43:24.754Z,38.93
2022-11-05T20:45:59.090Z,39.43
2022-11-05T20:48:31.365Z,45.63
2022-11-05T20:51:01.321Z,48.60
2022-11-05T20:53:30.447Z,36.87
2022-11-05T20:56:06.547Z,39.17
2022-11-05T20:58:37.536Z,37.70
2022-11-05T21:01:08.404Z,39.90
2022-11-05T21:03:37.645Z,42.53
2022-11-05T21:06:07.708Z,42.93
2022-11-05T21:08:37.435Z,42.67
2022-11-05T21:11:08.346Z,41.93
2022-11-05T21:13:37.739Z,47.57
2022-11-05T21:16:10.942Z,52.23
2022-11-05T21:18:43.130Z,57.30
2022-11-05T21:21:14.711Z,52.27
2022-11-05T21:23:43.705Z,66.10
2022-11-05T21:26:16.881Z,51.13
2022-11-05T21:28:46.018Z,42.23
2022-11-05T21:31:15.001Z,45.23
2022-11-05T21:33:44.289Z,39.27
2022-11-05T21:36:14.848Z,35.10
2022-11-05T21:38:44.036Z,41.23
2022-11-05T21:41:15.172Z,42.43
2022-11-05T21:43:44.106Z,39.83
2022-11-05T21:46:14.537Z,33.50
2022-11-05T21:48:43.712Z,33.33
2022-11-05T21:51:30.587Z,35.77
2022-11-05T21:54:17.281Z,32.20
2022-11-05T21:57:09.786Z,35.00
2022-11-05T21:59:57.616Z,34.27
2022-11-05T22:02:28.539Z,30.10
2022-11-05T22:05:00.032Z,35.63
2022-11-05T22:07:31.770Z,34.27
2022-11-05T22:10:01.264Z,37.47
2022-11-05T22:12:32.789Z,39.60
2022-11-05T22:15:01.594Z,37.07
2022-11-05T22:17:30.618Z,39.73
2022-11-05T22:19:59.319Z,36.37
2022-11-05T22:22:28.114Z,36.37
2022-11-05T22:24:56.921Z,35.73
2022-11-05T22:27:25.593Z,33.57
2022-11-05T22:29:55.858Z,36.07
2022-11-05T22:32:24.720Z,37.80
2022-11-05T22:34:53.393Z,35.37
2022-11-05T22:37:22.807Z,46.10
2022-11-05T22:39:51.865Z,41.87
2022-11-05T22:42:20.493Z,40.20
2022-11-05T22:44:49.160Z,41.50
2022-11-05T22:47:19.405Z,41.13
2022-11-05T22:49:50.437Z,41.17
2022-11-05T22:52:19.061Z,36.00
2022-11-05T22:54:49.988Z,37.43
2022-11-05T22:57:18.642Z,42.53
2022-11-05T22:59:47.383Z,37.90
2022-11-05T23:02:16.147Z,40.37
2022-11-05T23:04:46.166Z,40.37
2022-11-05T23:07:32.505Z,44.57
2022-11-05T23:10:18.495Z,36.53
2022-11-05T23:12:47.111Z,38.23
2022-11-05T23:15:29.658Z,47.37
2022-11-05T23:18:15.752Z,51.13
2022-11-05T23:21:03.329Z,43.67
2022-11-05T23:23:49.296Z,41.43
2022-11-05T23:26:34.981Z,40.23
2022-11-05T23:29:04.366Z,39.03
2022-11-05T23:31:50.658Z,39.33
2022-11-05T23:34:19.487Z,30.63
2022-11-05T23:37:07.021Z,32.87
2022-11-05T23:39:41.254Z,34.97
2022-11-05T23:42:28.874Z,35.97
2022-11-05T23:45:15.125Z,32.63
2022-11-05T23:47:57.927Z,38.27
2022-11-05T23:50:27.376Z,49.47
2022-11-05T23:52:57.498Z,52.83
2022-11-05T23:55:26.565Z,44.50
2022-11-05T23:57:55.327Z,53.53
